sensor_id;sensor_type;location;lat;lon;timestamp;P1;durP1;ratioP1;P2;durP2;ratioP2
53521;SDS011;39398;48.382;9.802;2023-08-06T00:00:19;7.70;;;5.70;;
53521;SDS011;39398;48.382;9.802;2023-08-06T00:05:20;6.70;;;5.88;;
53521;SDS011;39398;48.382;9.802;2023-08-06T00:10:22;7.30;;;5.40;;
53521;SDS011;39398;48.382;9.802;2023-08-06T00:15:24;7.57;;;6.07;;
53521;SDS011;39398;48.382;9.802;2023-08-06T00:20:26;8.43;;;6.18;;
53521;SDS011;39398;48.382;9.802;2023-08-06T00:25:27;9.10;;;6.95;;
53521;SDS011;39398;48.382;9.802;2023-08-06T00:30:30;10.27;;;6.95;;
53521;SDS011;39398;48.382;9.802;2023-08-06T00:35:32;10.35;;;7.40;;
53521;SDS011;39398;48.382;9.802;2023-08-06T00:40:33;11.80;;;8.02;;
53521;SDS011;39398;48.382;9.802;2023-08-06T00:45:36;9.82;;;8.48;;
53521;SDS011;39398;48.382;9.802;2023-08-06T00:50:38;11.38;;;9.18;;
53521;SDS011;39398;48.382;9.802;2023-08-06T00:55:40;10.73;;;9.15;;
53521;SDS011;39398;48.382;9.802;2023-08-06T01:00:42;10.18;;;7.90;;
53521;SDS011;39398;48.382;9.802;2023-08-06T01:05:44;12.43;;;9.07;;
53521;SDS011;39398;48.382;9.802;2023-08-06T01:10:48;10.75;;;8.90;;
53521;SDS011;39398;48.382;9.802;2023-08-06T01:15:54;10.35;;;8.05;;
53521;SDS011;39398;48.382;9.802;2023-08-06T01:20:57;13.20;;;9.05;;
53521;SDS011;39398;48.382;9.802;2023-08-06T01:26:02;11.63;;;9.25;;
53521;SDS011;39398;48.382;9.802;2023-08-06T01:31:07;10.13;;;8.88;;
53521;SDS011;39398;48.382;9.802;2023-08-06T01:36:10;12.02;;;10.05;;
53521;SDS011;39398;48.382;9.802;2023-08-06T01:41:12;12.90;;;9.95;;
53521;SDS011;39398;48.382;9.802;2023-08-06T01:46:13;14.55;;;11.10;;
53521;SDS011;39398;48.382;9.802;2023-08-06T01:51:16;15.50;;;11.73;;
53521;SDS011;39398;48.382;9.802;2023-08-06T01:56:17;12.35;;;10.27;;
53521;SDS011;39398;48.382;9.802;2023-08-06T02:01:19;10.77;;;9.50;;
53521;SDS011;39398;48.382;9.802;2023-08-06T02:06:22;10.23;;;8.13;;
53521;SDS011;39398;48.382;9.802;2023-08-06T02:11:23;12.65;;;8.10;;
53521;SDS011;39398;48.382;9.802;2023-08-06T02:16:25;11.10;;;7.90;;
53521;SDS011;39398;48.382;9.802;2023-08-06T02:21:27;9.25;;;6.72;;
53521;SDS011;39398;48.382;9.802;2023-08-06T02:26:29;8.73;;;7.03;;
53521;SDS011;39398;48.382;9.802;2023-08-06T02:31:30;9.07;;;7.18;;
53521;SDS011;39398;48.382;9.802;2023-08-06T02:36:33;9.60;;;6.97;;
53521;SDS011;39398;48.382;9.802;2023-08-06T02:41:34;9.07;;;7.38;;
53521;SDS011;39398;48.382;9.802;2023-08-06T02:46:36;9.82;;;7.22;;
53521;SDS011;39398;48.382;9.802;2023-08-06T02:51:38;9.93;;;7.57;;
53521;SDS011;39398;48.382;9.802;2023-08-06T02:56:42;8.70;;;6.78;;
53521;SDS011;39398;48.382;9.802;2023-08-06T03:01:43;9.55;;;6.35;;
53521;SDS011;39398;48.382;9.802;2023-08-06T03:06:46;11.55;;;8.10;;
53521;SDS011;39398;48.382;9.802;2023-08-06T03:11:47;10.18;;;8.45;;
53521;SDS011;39398;48.382;9.802;2023-08-06T03:16:49;13.77;;;9.07;;
53521;SDS011;39398;48.382;9.802;2023-08-06T03:22:16;10.70;;;9.02;;
53521;SDS011;39398;48.382;9.802;2023-08-06T03:27:17;13.88;;;9.23;;
53521;SDS011;39398;48.382;9.802;2023-08-06T03:32:18;13.50;;;9.32;;
53521;SDS011;39398;48.382;9.802;2023-08-06T03:37:21;16.35;;;12.15;;
53521;SDS011;39398;48.382;9.802;2023-08-06T03:42:22;15.88;;;10.82;;
53521;SDS011;39398;48.382;9.802;2023-08-06T03:47:24;12.82;;;9.35;;
53521;SDS011;39398;48.382;9.802;2023-08-06T03:52:27;12.23;;;8.60;;
53521;SDS011;39398;48.382;9.802;2023-08-06T03:57:28;10.48;;;6.95;;
53521;SDS011;39398;48.382;9.802;2023-08-06T04:02:29;8.50;;;6.43;;
53521;SDS011;39398;48.382;9.802;2023-08-06T04:07:32;7.32;;;6.30;;
53521;SDS011;39398;48.382;9.802;2023-08-06T04:12:34;8.70;;;5.18;;
53521;SDS011;39398;48.382;9.802;2023-08-06T04:17:35;9.93;;;5.35;;
53521;SDS011;39398;48.382;9.802;2023-08-06T04:22:38;7.20;;;5.75;;
53521;SDS011;39398;48.382;9.802;2023-08-06T04:27:39;8.02;;;4.95;;
53521;SDS011;39398;48.382;9.802;2023-08-06T04:32:41;6.78;;;4.97;;
53521;SDS011;39398;48.382;9.802;2023-08-06T04:37:44;8.40;;;5.32;;
53521;SDS011;39398;48.382;9.802;2023-08-06T04:42:45;8.13;;;5.03;;
53521;SDS011;39398;48.382;9.802;2023-08-06T04:47:47;6.25;;;5.10;;
53521;SDS011;39398;48.382;9.802;2023-08-06T04:52:49;7.18;;;5.72;;
53521;SDS011;39398;48.382;9.802;2023-08-06T04:57:51;7.60;;;5.97;;
53521;SDS011;39398;48.382;9.802;2023-08-06T05:02:52;7.13;;;5.63;;
53521;SDS011;39398;48.382;9.802;2023-08-06T05:07:56;10.55;;;5.65;;
53521;SDS011;39398;48.382;9.802;2023-08-06T05:12:58;10.90;;;5.80;;
53521;SDS011;39398;48.382;9.802;2023-08-06T05:17:59;6.18;;;4.85;;
53521;SDS011;39398;48.382;9.802;2023-08-06T05:23:02;7.82;;;5.00;;
53521;SDS011;39398;48.382;9.802;2023-08-06T05:28:04;9.15;;;5.65;;
53521;SDS011;39398;48.382;9.802;2023-08-06T05:33:05;7.85;;;5.18;;
53521;SDS011;39398;48.382;9.802;2023-08-06T05:38:08;5.53;;;4.10;;
53521;SDS011;39398;48.382;9.802;2023-08-06T05:43:09;6.65;;;5.22;;
53521;SDS011;39398;48.382;9.802;2023-08-06T05:48:11;8.07;;;4.70;;
53521;SDS011;39398;48.382;9.802;2023-08-06T05:53:13;5.40;;;4.22;;
53521;SDS011;39398;48.382;9.802;2023-08-06T05:58:15;5.05;;;3.42;;
53521;SDS011;39398;48.382;9.802;2023-08-06T06:03:16;3.05;;;2.75;;
53521;SDS011;39398;48.382;9.802;2023-08-06T06:08:19;2.97;;;2.30;;
53521;SDS011;39398;48.382;9.802;2023-08-06T06:13:20;2.85;;;2.42;;
53521;SDS011;39398;48.382;9.802;2023-08-06T06:18:22;3.75;;;2.30;;
53521;SDS011;39398;48.382;9.802;2023-08-06T06:23:24;4.72;;;2.17;;
53521;SDS011;39398;48.382;9.802;2023-08-06T06:28:26;3.03;;;2.50;;
53521;SDS011;39398;48.382;9.802;2023-08-06T06:33:27;2.80;;;2.53;;
53521;SDS011;39398;48.382;9.802;2023-08-06T06:38:30;4.70;;;3.03;;
53521;SDS011;39398;48.382;9.802;2023-08-06T06:43:31;3.35;;;2.60;;
53521;SDS011;39398;48.382;9.802;2023-08-06T06:48:33;2.95;;;2.38;;
53521;SDS011;39398;48.382;9.802;2023-08-06T06:53:35;2.75;;;1.88;;
53521;SDS011;39398;48.382;9.802;2023-08-06T06:58:37;3.17;;;1.90;;
53521;SDS011;39398;48.382;9.802;2023-08-06T07:03:38;3.08;;;1.40;;
53521;SDS011;39398;48.382;9.802;2023-08-06T07:08:41;1.83;;;1.40;;
53521;SDS011;39398;48.382;9.802;2023-08-06T07:13:42;1.60;;;1.30;;
53521;SDS011;39398;48.382;9.802;2023-08-06T07:18:44;1.90;;;1.10;;
53521;SDS011;39398;48.382;9.802;2023-08-06T07:23:47;0.90;;;0.75;;
53521;SDS011;39398;48.382;9.802;2023-08-06T07:28:48;3.05;;;1.00;;
53521;SDS011;39398;48.382;9.802;2023-08-06T07:33:49;2.40;;;0.70;;
53521;SDS011;39398;48.382;9.802;2023-08-06T07:38:52;1.65;;;0.45;;
53521;SDS011;39398;48.382;9.802;2023-08-06T07:43:54;0.68;;;0.50;;
53521;SDS011;39398;48.382;9.802;2023-08-06T07:48:55;0.82;;;0.40;;
53521;SDS011;39398;48.382;9.802;2023-08-06T07:53:58;2.55;;;0.65;;
53521;SDS011;39398;48.382;9.802;2023-08-06T07:58:59;0.43;;;0.40;;
53521;SDS011;39398;48.382;9.802;2023-08-06T08:04:01;0.35;;;0.35;;
53521;SDS011;39398;48.382;9.802;2023-08-06T08:09:03;1.25;;;0.60;;
53521;SDS011;39398;48.382;9.802;2023-08-06T08:14:05;1.23;;;0.40;;
53521;SDS011;39398;48.382;9.802;2023-08-06T08:19:06;0.30;;;0.30;;
53521;SDS011;39398;48.382;9.802;2023-08-06T08:24:09;0.22;;;0.22;;
53521;SDS011;39398;48.382;9.802;2023-08-06T08:29:10;1.33;;;1.15;;
53521;SDS011;39398;48.382;9.802;2023-08-06T08:34:12;0.28;;;0.28;;
53521;SDS011;39398;48.382;9.802;2023-08-06T08:39:15;0.32;;;0.25;;
53521;SDS011;39398;48.382;9.802;2023-08-06T08:44:16;0.30;;;0.30;;
53521;SDS011;39398;48.382;9.802;2023-08-06T08:49:18;0.85;;;0.30;;
53521;SDS011;39398;48.382;9.802;2023-08-06T08:54:23;2.00;;;1.52;;
53521;SDS011;39398;48.382;9.802;2023-08-06T08:59:25;0.30;;;0.30;;
53521;SDS011;39398;48.382;9.802;2023-08-06T09:04:27;0.20;;;0.20;;
53521;SDS011;39398;48.382;9.802;2023-08-06T09:09:31;0.52;;;0.30;;
53521;SDS011;39398;48.382;9.802;2023-08-06T09:14:33;0.45;;;0.30;;
53521;SDS011;39398;48.382;9.802;2023-08-06T09:19:34;0.20;;;0.20;;
53521;SDS011;39398;48.382;9.802;2023-08-06T09:24:39;0.28;;;0.28;;
53521;SDS011;39398;48.382;9.802;2023-08-06T09:29:41;0.20;;;0.20;;
53521;SDS011;39398;48.382;9.802;2023-08-06T09:34:42;0.30;;;0.30;;
53521;SDS011;39398;48.382;9.802;2023-08-06T09:39:45;0.20;;;0.20;;
53521;SDS011;39398;48.382;9.802;2023-08-06T09:44:47;0.63;;;0.28;;
53521;SDS011;39398;48.382;9.802;2023-08-06T09:49:48;1.48;;;1.27;;
53521;SDS011;39398;48.382;9.802;2023-08-06T09:54:52;0.40;;;0.40;;
53521;SDS011;39398;48.382;9.802;2023-08-06T09:59:54;0.30;;;0.30;;
53521;SDS011;39398;48.382;9.802;2023-08-06T10:04:55;0.63;;;0.30;;
53521;SDS011;39398;48.382;9.802;2023-08-06T10:09:59;0.30;;;0.30;;
53521;SDS011;39398;48.382;9.802;2023-08-06T10:15:01;0.32;;;0.20;;
53521;SDS011;39398;48.382;9.802;2023-08-06T10:20:04;0.55;;;0.20;;
53521;SDS011;39398;48.382;9.802;2023-08-06T10:25:07;0.22;;;0.22;;
53521;SDS011;39398;48.382;9.802;2023-08-06T10:30:22;0.57;;;0.30;;
53521;SDS011;39398;48.382;9.802;2023-08-06T10:35:30;0.22;;;0.20;;
53521;SDS011;39398;48.382;9.802;2023-08-06T10:40:33;0.20;;;0.20;;
53521;SDS011;39398;48.382;9.802;2023-08-06T10:45:35;0.30;;;0.30;;
53521;SDS011;39398;48.382;9.802;2023-08-06T10:50:37;1.02;;;0.30;;
53521;SDS011;39398;48.382;9.802;2023-08-06T10:55:40;0.20;;;0.20;;
53521;SDS011;39398;48.382;9.802;2023-08-06T11:00:41;0.68;;;0.32;;
53521;SDS011;39398;48.382;9.802;2023-08-06T11:05:48;0.85;;;0.30;;
53521;SDS011;39398;48.382;9.802;2023-08-06T11:10:51;0.95;;;0.30;;
53521;SDS011;39398;48.382;9.802;2023-08-06T11:16:04;0.65;;;0.30;;
53521;SDS011;39398;48.382;9.802;2023-08-06T11:21:05;0.20;;;0.20;;
53521;SDS011;39398;48.382;9.802;2023-08-06T11:26:08;0.30;;;0.30;;
53521;SDS011;39398;48.382;9.802;2023-08-06T11:31:18;1.45;;;0.20;;
53521;SDS011;39398;48.382;9.802;2023-08-06T11:36:28;0.40;;;0.20;;
53521;SDS011;39398;48.382;9.802;2023-08-06T11:41:31;0.47;;;0.30;;
53521;SDS011;39398;48.382;9.802;2023-08-06T11:51:49;0.28;;;0.28;;
53521;SDS011;39398;48.382;9.802;2023-08-06T11:56:51;0.20;;;0.20;;
53521;SDS011;39398;48.382;9.802;2023-08-06T12:01:53;0.20;;;0.20;;
53521;SDS011;39398;48.382;9.802;2023-08-06T12:06:55;0.30;;;0.30;;
53521;SDS011;39398;48.382;9.802;2023-08-06T12:11:58;2.30;;;0.30;;
53521;SDS011;39398;48.382;9.802;2023-08-06T12:16:59;0.50;;;0.30;;
53521;SDS011;39398;48.382;9.802;2023-08-06T12:22:00;0.25;;;0.25;;
53521;SDS011;39398;48.382;9.802;2023-08-06T12:27:03;0.55;;;0.22;;
53521;SDS011;39398;48.382;9.802;2023-08-06T12:32:05;0.20;;;0.20;;
53521;SDS011;39398;48.382;9.802;2023-08-06T12:37:07;0.20;;;0.20;;
53521;SDS011;39398;48.382;9.802;2023-08-06T12:42:10;0.95;;;0.30;;
53521;SDS011;39398;48.382;9.802;2023-08-06T12:47:11;1.20;;;0.40;;
53521;SDS011;39398;48.382;9.802;2023-08-06T12:52:13;0.40;;;0.40;;
53521;SDS011;39398;48.382;9.802;2023-08-06T12:57:16;0.38;;;0.38;;
53521;SDS011;39398;48.382;9.802;2023-08-06T13:02:17;0.95;;;0.30;;
53521;SDS011;39398;48.382;9.802;2023-08-06T13:07:18;2.25;;;0.35;;
53521;SDS011;39398;48.382;9.802;2023-08-06T13:12:21;0.30;;;0.30;;
53521;SDS011;39398;48.382;9.802;2023-08-06T13:17:23;0.80;;;0.65;;
53521;SDS011;39398;48.382;9.802;2023-08-06T13:22:24;0.60;;;0.60;;
53521;SDS011;39398;48.382;9.802;2023-08-06T13:27:27;0.60;;;0.60;;
53521;SDS011;39398;48.382;9.802;2023-08-06T13:32:29;1.50;;;0.50;;
53521;SDS011;39398;48.382;9.802;2023-08-06T13:37:30;0.75;;;0.50;;
53521;SDS011;39398;48.382;9.802;2023-08-06T13:42:33;0.98;;;0.98;;
53521;SDS011;39398;48.382;9.802;2023-08-06T13:47:34;1.35;;;0.70;;
53521;SDS011;39398;48.382;9.802;2023-08-06T13:52:36;0.70;;;0.70;;
53521;SDS011;39398;48.382;9.802;2023-08-06T13:57:39;0.55;;;0.55;;
53521;SDS011;39398;48.382;9.802;2023-08-06T14:02:40;1.00;;;0.80;;
53521;SDS011;39398;48.382;9.802;2023-08-06T14:07:42;0.60;;;0.60;;
53521;SDS011;39398;48.382;9.802;2023-08-06T14:12:45;0.75;;;0.75;;
53521;SDS011;39398;48.382;9.802;2023-08-06T14:17:58;2.17;;;0.60;;
53521;SDS011;39398;48.382;9.802;2023-08-06T14:22:59;0.55;;;0.55;;
53521;SDS011;39398;48.382;9.802;2023-08-06T14:28:02;0.50;;;0.50;;
53521;SDS011;39398;48.382;9.802;2023-08-06T14:33:03;0.60;;;0.60;;
53521;SDS011;39398;48.382;9.802;2023-08-06T14:38:25;0.50;;;0.40;;
53521;SDS011;39398;48.382;9.802;2023-08-06T14:43:28;0.50;;;0.50;;
53521;SDS011;39398;48.382;9.802;2023-08-06T14:48:30;0.55;;;0.55;;
53521;SDS011;39398;48.382;9.802;2023-08-06T14:53:31;0.50;;;0.50;;
53521;SDS011;39398;48.382;9.802;2023-08-06T14:58:34;0.75;;;0.57;;
53521;SDS011;39398;48.382;9.802;2023-08-06T15:03:35;0.50;;;0.50;;
53521;SDS011;39398;48.382;9.802;2023-08-06T15:08:37;0.50;;;0.50;;
53521;SDS011;39398;48.382;9.802;2023-08-06T15:13:40;0.88;;;0.57;;
53521;SDS011;39398;48.382;9.802;2023-08-06T15:18:41;0.43;;;0.43;;
53521;SDS011;39398;48.382;9.802;2023-08-06T15:23:42;0.30;;;0.30;;
53521;SDS011;39398;48.382;9.802;2023-08-06T15:28:45;0.70;;;0.70;;
53521;SDS011;39398;48.382;9.802;2023-08-06T15:33:47;0.60;;;0.50;;
53521;SDS011;39398;48.382;9.802;2023-08-06T15:38:48;0.30;;;0.30;;
53521;SDS011;39398;48.382;9.802;2023-08-06T15:43:51;0.40;;;0.40;;
53521;SDS011;39398;48.382;9.802;2023-08-06T15:48:52;2.15;;;0.50;;
53521;SDS011;39398;48.382;9.802;2023-08-06T15:53:54;1.75;;;0.50;;
53521;SDS011;39398;48.382;9.802;2023-08-06T15:58:56;0.98;;;0.63;;
53521;SDS011;39398;48.382;9.802;2023-08-06T16:03:58;0.60;;;0.50;;
53521;SDS011;39398;48.382;9.802;2023-08-06T16:08:59;0.60;;;0.60;;
53521;SDS011;39398;48.382;9.802;2023-08-06T16:14:02;0.60;;;0.60;;
53521;SDS011;39398;48.382;9.802;2023-08-06T16:19:03;1.70;;;0.70;;
53521;SDS011;39398;48.382;9.802;2023-08-06T16:24:05;0.68;;;0.68;;
53521;SDS011;39398;48.382;9.802;2023-08-06T16:29:08;1.58;;;0.80;;
53521;SDS011;39398;48.382;9.802;2023-08-06T16:34:09;0.82;;;0.60;;
53521;SDS011;39398;48.382;9.802;2023-08-06T16:39:10;1.00;;;0.80;;
53521;SDS011;39398;48.382;9.802;2023-08-06T16:44:13;1.80;;;0.85;;
53521;SDS011;39398;48.382;9.802;2023-08-06T16:49:15;5.20;;;0.80;;
53521;SDS011;39398;48.382;9.802;2023-08-06T16:54:16;1.00;;;0.85;;
53521;SDS011;39398;48.382;9.802;2023-08-06T16:59:19;0.52;;;0.52;;
53521;SDS011;39398;48.382;9.802;2023-08-06T17:04:20;1.40;;;0.77;;
53521;SDS011;39398;48.382;9.802;2023-08-06T17:09:22;1.92;;;1.27;;
53521;SDS011;39398;48.382;9.802;2023-08-06T17:14:25;1.35;;;0.90;;
53521;SDS011;39398;48.382;9.802;2023-08-06T17:19:26;1.38;;;0.80;;
53521;SDS011;39398;48.382;9.802;2023-08-06T17:24:27;0.70;;;0.70;;
53521;SDS011;39398;48.382;9.802;2023-08-06T17:29:30;0.93;;;0.80;;
53521;SDS011;39398;48.382;9.802;2023-08-06T17:34:32;1.65;;;0.80;;
53521;SDS011;39398;48.382;9.802;2023-08-06T17:39:33;1.15;;;0.88;;
53521;SDS011;39398;48.382;9.802;2023-08-06T17:44:36;0.80;;;0.80;;
53521;SDS011;39398;48.382;9.802;2023-08-06T17:49:37;1.27;;;0.80;;
53521;SDS011;39398;48.382;9.802;2023-08-06T17:54:39;1.27;;;1.17;;
53521;SDS011;39398;48.382;9.802;2023-08-06T17:59:42;1.10;;;1.00;;
53521;SDS011;39398;48.382;9.802;2023-08-06T18:04:43;1.52;;;1.00;;
53521;SDS011;39398;48.382;9.802;2023-08-06T18:09:44;1.65;;;1.00;;
53521;SDS011;39398;48.382;9.802;2023-08-06T18:14:47;1.67;;;0.90;;
53521;SDS011;39398;48.382;9.802;2023-08-06T18:19:49;0.93;;;0.93;;
53521;SDS011;39398;48.382;9.802;2023-08-06T18:24:50;3.42;;;1.60;;
53521;SDS011;39398;48.382;9.802;2023-08-06T18:29:53;1.23;;;1.00;;
53521;SDS011;39398;48.382;9.802;2023-08-06T18:34:54;1.40;;;0.90;;
53521;SDS011;39398;48.382;9.802;2023-08-06T18:39:56;2.10;;;1.75;;
53521;SDS011;39398;48.382;9.802;2023-08-06T18:44:58;4.40;;;1.55;;
53521;SDS011;39398;48.382;9.802;2023-08-06T18:50:00;1.45;;;1.35;;
53521;SDS011;39398;48.382;9.802;2023-08-06T18:55:01;2.72;;;1.10;;
53521;SDS011;39398;48.382;9.802;2023-08-06T19:00:05;2.15;;;1.60;;
53521;SDS011;39398;48.382;9.802;2023-08-06T19:05:07;3.50;;;1.48;;
53521;SDS011;39398;48.382;9.802;2023-08-06T19:10:09;4.20;;;1.50;;
53521;SDS011;39398;48.382;9.802;2023-08-06T19:15:12;3.38;;;1.30;;
53521;SDS011;39398;48.382;9.802;2023-08-06T19:20:16;3.75;;;1.42;;
53521;SDS011;39398;48.382;9.802;2023-08-06T19:25:17;2.83;;;1.95;;
53521;SDS011;39398;48.382;9.802;2023-08-06T19:30:20;5.85;;;1.80;;
53521;SDS011;39398;48.382;9.802;2023-08-06T19:35:22;7.25;;;4.82;;
53521;SDS011;39398;48.382;9.802;2023-08-06T19:40:23;3.03;;;1.70;;
53521;SDS011;39398;48.382;9.802;2023-08-06T19:45:26;5.07;;;1.73;;
53521;SDS011;39398;48.382;9.802;2023-08-06T19:50:28;1.80;;;1.40;;
53521;SDS011;39398;48.382;9.802;2023-08-06T19:55:29;2.97;;;1.60;;
53521;SDS011;39398;48.382;9.802;2023-08-06T20:00:32;3.33;;;1.63;;
53521;SDS011;39398;48.382;9.802;2023-08-06T20:05:33;3.88;;;1.58;;
53521;SDS011;39398;48.382;9.802;2023-08-06T20:10:35;5.28;;;4.55;;
53521;SDS011;39398;48.382;9.802;2023-08-06T20:15:38;3.45;;;1.63;;
53521;SDS011;39398;48.382;9.802;2023-08-06T20:20:39;4.75;;;1.77;;
53521;SDS011;39398;48.382;9.802;2023-08-06T20:25:41;5.65;;;1.73;;
53521;SDS011;39398;48.382;9.802;2023-08-06T20:30:44;4.15;;;1.77;;
53521;SDS011;39398;48.382;9.802;2023-08-06T20:35:46;6.55;;;1.83;;
53521;SDS011;39398;48.382;9.802;2023-08-06T20:40:47;3.38;;;1.60;;
53521;SDS011;39398;48.382;9.802;2023-08-06T20:45:52;2.25;;;1.42;;
53521;SDS011;39398;48.382;9.802;2023-08-06T20:50:54;2.00;;;1.52;;
53521;SDS011;39398;48.382;9.802;2023-08-06T20:55:58;1.60;;;1.27;;
53521;SDS011;39398;48.382;9.802;2023-08-06T21:01:01;3.58;;;1.70;;
53521;SDS011;39398;48.382;9.802;2023-08-06T21:06:03;3.30;;;1.80;;
53521;SDS011;39398;48.382;9.802;2023-08-06T21:11:05;4.50;;;1.40;;
53521;SDS011;39398;48.382;9.802;2023-08-06T21:16:08;2.25;;;1.40;;
53521;SDS011;39398;48.382;9.802;2023-08-06T21:21:09;3.03;;;1.40;;
53521;SDS011;39398;48.382;9.802;2023-08-06T21:26:11;1.73;;;1.27;;
53521;SDS011;39398;48.382;9.802;2023-08-06T21:31:14;2.00;;;1.30;;
53521;SDS011;39398;48.382;9.802;2023-08-06T21:36:15;3.22;;;1.45;;
53521;SDS011;39398;48.382;9.802;2023-08-06T21:41:17;1.75;;;1.30;;
53521;SDS011;39398;48.382;9.802;2023-08-06T21:46:19;1.35;;;1.25;;
53521;SDS011;39398;48.382;9.802;2023-08-06T21:51:21;1.63;;;1.52;;
53521;SDS011;39398;48.382;9.802;2023-08-06T21:56:22;2.63;;;1.20;;
53521;SDS011;39398;48.382;9.802;2023-08-06T22:01:25;1.42;;;1.20;;
53521;SDS011;39398;48.382;9.802;2023-08-06T22:06:27;1.73;;;1.40;;
53521;SDS011;39398;48.382;9.802;2023-08-06T22:11:28;1.83;;;1.40;;
53521;SDS011;39398;48.382;9.802;2023-08-06T22:16:31;2.17;;;1.10;;
53521;SDS011;39398;48.382;9.802;2023-08-06T22:21:32;2.42;;;1.30;;
53521;SDS011;39398;48.382;9.802;2023-08-06T22:26:34;1.95;;;1.25;;
53521;SDS011;39398;48.382;9.802;2023-08-06T22:31:36;1.17;;;1.08;;
53521;SDS011;39398;48.382;9.802;2023-08-06T22:36:38;1.85;;;1.10;;
53521;SDS011;39398;48.382;9.802;2023-08-06T22:41:39;1.83;;;1.10;;
53521;SDS011;39398;48.382;9.802;2023-08-06T22:46:42;1.73;;;1.13;;
53521;SDS011;39398;48.382;9.802;2023-08-06T22:51:43;2.85;;;1.33;;
53521;SDS011;39398;48.382;9.802;2023-08-06T22:56:45;1.00;;;1.00;;
53521;SDS011;39398;48.382;9.802;2023-08-06T23:01:47;2.47;;;1.35;;
53521;SDS011;39398;48.382;9.802;2023-08-06T23:06:49;2.03;;;1.17;;
53521;SDS011;39398;48.382;9.802;2023-08-06T23:11:51;3.17;;;1.58;;
53521;SDS011;39398;48.382;9.802;2023-08-06T23:16:53;2.08;;;1.60;;
53521;SDS011;39398;48.382;9.802;2023-08-06T23:21:55;2.40;;;1.67;;
53521;SDS011;39398;48.382;9.802;2023-08-06T23:26:57;3.50;;;1.60;;
53521;SDS011;39398;48.382;9.802;2023-08-06T23:32:00;4.45;;;1.58;;
53521;SDS011;39398;48.382;9.802;2023-08-06T23:37:01;1.48;;;1.38;;
53521;SDS011;39398;48.382;9.802;2023-08-06T23:42:03;2.17;;;1.58;;
53521;SDS011;39398;48.382;9.802;2023-08-06T23:47:05;1.90;;;1.42;;
53521;SDS011;39398;48.382;9.802;2023-08-06T23:52:07;1.85;;;1.40;;
53521;SDS011;39398;48.382;9.802;2023-08-06T23:57:08;2.22;;;1.42;;
